sensor_id;sensor_type;location;lat;lon;timestamp;temperature;humidity
66752;SHT31;53663;42.676;23.238;2022-09-12T00:00:32;15.03;81.41
66752;SHT31;53663;42.676;23.238;2022-09-12T00:02:58;15.00;80.94
66752;SHT31;53663;42.676;23.238;2022-09-12T00:05:24;14.99;80.86
66752;SHT31;53663;42.676;23.238;2022-09-12T00:07:50;14.93;81.13
66752;SHT31;53663;42.676;23.238;2022-09-12T00:10:16;14.82;81.58
66752;SHT31;53663;42.676;23.238;2022-09-12T00:12:42;14.80;81.65
66752;SHT31;53663;42.676;23.238;2022-09-12T00:15:08;14.66;81.94
66752;SHT31;53663;42.676;23.238;2022-09-12T00:17:35;14.63;81.71
66752;SHT31;53663;42.676;23.238;2022-09-12T00:20:03;14.71;81.53
66752;SHT31;53663;42.676;23.238;2022-09-12T00:22:28;14.52;82.73
66752;SHT31;53663;42.676;23.238;2022-09-12T00:24:54;14.53;82.05
66752;SHT31;53663;42.676;23.238;2022-09-12T00:27:19;14.59;81.64
66752;SHT31;53663;42.676;23.238;2022-09-12T00:29:45;14.65;81.36
66752;SHT31;53663;42.676;23.238;2022-09-12T00:32:10;14.72;81.21
66752;SHT31;53663;42.676;23.238;2022-09-12T00:34:36;14.76;81.36
66752;SHT31;53663;42.676;23.238;2022-09-12T00:37:02;14.77;81.03
66752;SHT31;53663;42.676;23.238;2022-09-12T00:39:28;14.80;80.76
66752;SHT31;53663;42.676;23.238;2022-09-12T00:41:53;14.86;80.25
66752;SHT31;53663;42.676;23.238;2022-09-12T00:46:59;14.83;79.68
66752;SHT31;53663;42.676;23.238;2022-09-12T00:49:42;14.76;79.36
66752;SHT31;53663;42.676;23.238;2022-09-12T00:52:30;14.59;79.81
66752;SHT31;53663;42.676;23.238;2022-09-12T00:55:05;14.45;80.09
66752;SHT31;53663;42.676;23.238;2022-09-12T00:57:36;14.15;80.86
66752;SHT31;53663;42.676;23.238;2022-09-12T01:00:23;14.15;81.23
66752;SHT31;53663;42.676;23.238;2022-09-12T01:03:13;14.13;81.45
66752;SHT31;53663;42.676;23.238;2022-09-12T01:05:45;14.08;81.40
66752;SHT31;53663;42.676;23.238;2022-09-12T01:08:11;14.04;81.48
66752;SHT31;53663;42.676;23.238;2022-09-12T01:10:37;13.98;81.63
66752;SHT31;53663;42.676;23.238;2022-09-12T01:13:07;14.00;81.91
66752;SHT31;53663;42.676;23.238;2022-09-12T01:15:36;13.90;82.20
66752;SHT31;53663;42.676;23.238;2022-09-12T01:35:05;13.50;82.46
66752;SHT31;53663;42.676;23.238;2022-09-12T01:38:06;13.42;82.54
66752;SHT31;53663;42.676;23.238;2022-09-12T01:51:38;13.14;83.28
66752;SHT31;53663;42.676;23.238;2022-09-12T01:54:09;13.05;84.03
66752;SHT31;53663;42.676;23.238;2022-09-12T01:56:38;13.11;82.81
66752;SHT31;53663;42.676;23.238;2022-09-12T01:59:19;13.11;82.56
66752;SHT31;53663;42.676;23.238;2022-09-12T02:02:02;13.12;82.38
66752;SHT31;53663;42.676;23.238;2022-09-12T02:04:54;13.12;82.66
66752;SHT31;53663;42.676;23.238;2022-09-12T02:07:35;13.07;82.98
66752;SHT31;53663;42.676;23.238;2022-09-12T02:10:06;13.08;82.66
66752;SHT31;53663;42.676;23.238;2022-09-12T02:12:38;13.08;82.36
66752;SHT31;53663;42.676;23.238;2022-09-12T02:15:08;13.08;82.48
66752;SHT31;53663;42.676;23.238;2022-09-12T02:17:37;13.04;82.47
66752;SHT31;53663;42.676;23.238;2022-09-12T02:20:11;13.01;82.41
66752;SHT31;53663;42.676;23.238;2022-09-12T02:22:41;12.98;82.56
66752;SHT31;53663;42.676;23.238;2022-09-12T02:25:09;12.91;83.12
66752;SHT31;53663;42.676;23.238;2022-09-12T02:27:44;12.91;82.67
66752;SHT31;53663;42.676;23.238;2022-09-12T02:30:13;12.88;82.88
66752;SHT31;53663;42.676;23.238;2022-09-12T02:33:05;12.85;82.91
66752;SHT31;53663;42.676;23.238;2022-09-12T02:36:03;12.84;82.91
66752;SHT31;53663;42.676;23.238;2022-09-12T02:38:45;12.80;82.78
66752;SHT31;53663;42.676;23.238;2022-09-12T02:41:13;12.71;82.95
66752;SHT31;53663;42.676;23.238;2022-09-12T02:43:39;12.71;83.27
66752;SHT31;53663;42.676;23.238;2022-09-12T02:46:07;12.63;83.59
66752;SHT31;53663;42.676;23.238;2022-09-12T02:48:37;12.65;83.18
66752;SHT31;53663;42.676;23.238;2022-09-12T02:51:03;12.64;83.53
66752;SHT31;53663;42.676;23.238;2022-09-12T02:53:29;12.57;83.60
66752;SHT31;53663;42.676;23.238;2022-09-12T02:55:55;12.63;83.79
66752;SHT31;53663;42.676;23.238;2022-09-12T02:58:24;12.67;83.66
66752;SHT31;53663;42.676;23.238;2022-09-12T03:06:26;12.63;83.99
66752;SHT31;53663;42.676;23.238;2022-09-12T03:11:41;12.59;84.36
66752;SHT31;53663;42.676;23.238;2022-09-12T03:20:04;12.59;84.47
66752;SHT31;53663;42.676;23.238;2022-09-12T03:22:55;12.67;83.90
66752;SHT31;53663;42.676;23.238;2022-09-12T03:25:29;12.65;84.23
66752;SHT31;53663;42.676;23.238;2022-09-12T03:28:07;12.64;84.19
66752;SHT31;53663;42.676;23.238;2022-09-12T03:30:42;12.61;84.37
66752;SHT31;53663;42.676;23.238;2022-09-12T03:33:16;12.57;84.37
66752;SHT31;53663;42.676;23.238;2022-09-12T03:35:43;12.59;84.42
66752;SHT31;53663;42.676;23.238;2022-09-12T03:38:09;12.56;84.53
66752;SHT31;53663;42.676;23.238;2022-09-12T03:40:36;12.60;84.38
66752;SHT31;53663;42.676;23.238;2022-09-12T03:43:03;12.61;84.49
66752;SHT31;53663;42.676;23.238;2022-09-12T03:45:28;12.64;84.41
66752;SHT31;53663;42.676;23.238;2022-09-12T03:47:54;12.65;84.18
66752;SHT31;53663;42.676;23.238;2022-09-12T03:50:19;12.65;84.51
66752;SHT31;53663;42.676;23.238;2022-09-12T03:52:45;12.76;84.24
66752;SHT31;53663;42.676;23.238;2022-09-12T03:55:11;12.67;84.10
66752;SHT31;53663;42.676;23.238;2022-09-12T03:57:36;12.64;84.40
66752;SHT31;53663;42.676;23.238;2022-09-12T04:00:03;12.65;84.55
66752;SHT31;53663;42.676;23.238;2022-09-12T04:02:38;12.68;84.26
66752;SHT31;53663;42.676;23.238;2022-09-12T04:05:04;12.70;84.04
66752;SHT31;53663;42.676;23.238;2022-09-12T04:07:29;12.70;84.25
66752;SHT31;53663;42.676;23.238;2022-09-12T04:09:55;12.81;83.88
66752;SHT31;53663;42.676;23.238;2022-09-12T04:12:20;12.92;83.67
66752;SHT31;53663;42.676;23.238;2022-09-12T04:14:46;13.01;83.15
66752;SHT31;53663;42.676;23.238;2022-09-12T04:17:13;13.14;82.42
66752;SHT31;53663;42.676;23.238;2022-09-12T04:19:38;13.26;82.02
66752;SHT31;53663;42.676;23.238;2022-09-12T04:22:04;13.39;81.47
66752;SHT31;53663;42.676;23.238;2022-09-12T04:24:29;13.47;81.13
66752;SHT31;53663;42.676;23.238;2022-09-12T04:26:55;13.56;80.79
66752;SHT31;53663;42.676;23.238;2022-09-12T04:29:21;13.66;80.51
66752;SHT31;53663;42.676;23.238;2022-09-12T04:31:47;13.77;80.30
66752;SHT31;53663;42.676;23.238;2022-09-12T04:34:12;13.91;79.84
66752;SHT31;53663;42.676;23.238;2022-09-12T04:36:39;14.17;78.91
66752;SHT31;53663;42.676;23.238;2022-09-12T04:39:05;14.63;77.44
66752;SHT31;53663;42.676;23.238;2022-09-12T04:41:36;15.21;75.77
66752;SHT31;53663;42.676;23.238;2022-09-12T04:44:05;15.69;73.28
66752;SHT31;53663;42.676;23.238;2022-09-12T04:46:34;16.38;70.53
66752;SHT31;53663;42.676;23.238;2022-09-12T04:49:00;17.44;67.88
66752;SHT31;53663;42.676;23.238;2022-09-12T04:51:30;18.28;65.86
66752;SHT31;53663;42.676;23.238;2022-09-12T04:54:09;19.27;62.03
66752;SHT31;53663;42.676;23.238;2022-09-12T04:56:39;19.98;58.00
66752;SHT31;53663;42.676;23.238;2022-09-12T04:59:05;20.75;56.00
66752;SHT31;53663;42.676;23.238;2022-09-12T05:01:31;21.62;53.93
66752;SHT31;53663;42.676;23.238;2022-09-12T05:03:57;22.05;52.36
66752;SHT31;53663;42.676;23.238;2022-09-12T05:06:27;22.97;50.10
66752;SHT31;53663;42.676;23.238;2022-09-12T05:08:54;23.77;47.54
66752;SHT31;53663;42.676;23.238;2022-09-12T05:11:33;24.51;46.37
66752;SHT31;53663;42.676;23.238;2022-09-12T05:13:59;24.99;43.58
66752;SHT31;53663;42.676;23.238;2022-09-12T05:16:26;25.19;43.82
66752;SHT31;53663;42.676;23.238;2022-09-12T05:18:52;25.37;43.71
66752;SHT31;53663;42.676;23.238;2022-09-12T05:21:20;25.84;41.89
66752;SHT31;53663;42.676;23.238;2022-09-12T05:23:50;25.61;42.53
66752;SHT31;53663;42.676;23.238;2022-09-12T05:26:16;26.33;41.26
66752;SHT31;53663;42.676;23.238;2022-09-12T05:28:42;26.87;40.47
66752;SHT31;53663;42.676;23.238;2022-09-12T05:31:19;27.11;38.88
66752;SHT31;53663;42.676;23.238;2022-09-12T05:33:47;27.94;38.06
66752;SHT31;53663;42.676;23.238;2022-09-12T05:36:18;28.16;37.58
66752;SHT31;53663;42.676;23.238;2022-09-12T05:38:45;29.09;35.42
66752;SHT31;53663;42.676;23.238;2022-09-12T05:41:27;28.99;34.91
66752;SHT31;53663;42.676;23.238;2022-09-12T05:44:02;29.00;34.76
66752;SHT31;53663;42.676;23.238;2022-09-12T05:46:30;28.27;36.16
66752;SHT31;53663;42.676;23.238;2022-09-12T05:49:00;28.71;36.40
66752;SHT31;53663;42.676;23.238;2022-09-12T05:51:27;28.82;35.98
66752;SHT31;53663;42.676;23.238;2022-09-12T05:53:57;27.79;37.05
66752;SHT31;53663;42.676;23.238;2022-09-12T05:56:25;25.80;40.11
66752;SHT31;53663;42.676;23.238;2022-09-12T05:58:57;24.24;43.80
66752;SHT31;53663;42.676;23.238;2022-09-12T06:01:24;23.45;45.97
66752;SHT31;53663;42.676;23.238;2022-09-12T06:03:53;22.78;47.51
66752;SHT31;53663;42.676;23.238;2022-09-12T06:06:20;22.06;49.28
66752;SHT31;53663;42.676;23.238;2022-09-12T06:08:48;21.14;52.08
66752;SHT31;53663;42.676;23.238;2022-09-12T06:11:22;21.22;52.34
66752;SHT31;53663;42.676;23.238;2022-09-12T06:13:48;21.37;52.41
66752;SHT31;53663;42.676;23.238;2022-09-12T06:16:26;20.88;52.80
66752;SHT31;53663;42.676;23.238;2022-09-12T06:18:54;22.15;50.20
66752;SHT31;53663;42.676;23.238;2022-09-12T06:21:21;24.55;45.18
66752;SHT31;53663;42.676;23.238;2022-09-12T06:23:47;27.24;39.26
66752;SHT31;53663;42.676;23.238;2022-09-12T06:26:14;28.80;36.66
66752;SHT31;53663;42.676;23.238;2022-09-12T06:28:42;30.04;34.38
66752;SHT31;53663;42.676;23.238;2022-09-12T06:31:23;29.14;34.98
66752;SHT31;53663;42.676;23.238;2022-09-12T06:33:50;29.98;33.94
66752;SHT31;53663;42.676;23.238;2022-09-12T06:36:20;30.09;33.86
66752;SHT31;53663;42.676;23.238;2022-09-12T06:38:47;31.35;32.16
66752;SHT31;53663;42.676;23.238;2022-09-12T06:41:15;30.73;32.96
66752;SHT31;53663;42.676;23.238;2022-09-12T06:43:41;31.70;30.99
66752;SHT31;53663;42.676;23.238;2022-09-12T06:46:08;28.89;35.44
66752;SHT31;53663;42.676;23.238;2022-09-12T06:48:34;28.61;36.32
66752;SHT31;53663;42.676;23.238;2022-09-12T06:51:09;30.57;32.59
66752;SHT31;53663;42.676;23.238;2022-09-12T06:53:36;30.09;34.41
66752;SHT31;53663;42.676;23.238;2022-09-12T06:56:11;27.96;37.03
66752;SHT31;53663;42.676;23.238;2022-09-12T06:58:36;26.32;40.26
66752;SHT31;53663;42.676;23.238;2022-09-12T07:01:10;25.24;43.13
66752;SHT31;53663;42.676;23.238;2022-09-12T07:03:37;23.80;45.23
66752;SHT31;53663;42.676;23.238;2022-09-12T07:06:05;23.76;44.97
66752;SHT31;53663;42.676;23.238;2022-09-12T07:08:32;26.94;38.25
66752;SHT31;53663;42.676;23.238;2022-09-12T07:10:59;26.92;38.40
66752;SHT31;53663;42.676;23.238;2022-09-12T07:13:26;25.58;40.98
66752;SHT31;53663;42.676;23.238;2022-09-12T07:15:51;25.27;40.75
66752;SHT31;53663;42.676;23.238;2022-09-12T07:18:17;24.99;41.36
66752;SHT31;53663;42.676;23.238;2022-09-12T07:20:42;27.01;38.28
66752;SHT31;53663;42.676;23.238;2022-09-12T07:23:08;27.56;36.74
66752;SHT31;53663;42.676;23.238;2022-09-12T07:25:34;28.10;36.16
66752;SHT31;53663;42.676;23.238;2022-09-12T07:27:59;26.50;38.80
66752;SHT31;53663;42.676;23.238;2022-09-12T07:30:25;25.71;40.98
66752;SHT31;53663;42.676;23.238;2022-09-12T07:32:52;25.33;41.78
66752;SHT31;53663;42.676;23.238;2022-09-12T07:35:18;24.69;42.49
66752;SHT31;53663;42.676;23.238;2022-09-12T07:37:44;25.26;42.22
66752;SHT31;53663;42.676;23.238;2022-09-12T07:40:10;27.49;38.06
66752;SHT31;53663;42.676;23.238;2022-09-12T07:42:35;27.04;38.59
66752;SHT31;53663;42.676;23.238;2022-09-12T07:45:01;27.82;37.84
66752;SHT31;53663;42.676;23.238;2022-09-12T07:47:26;29.64;33.48
66752;SHT31;53663;42.676;23.238;2022-09-12T07:49:52;28.47;34.25
66752;SHT31;53663;42.676;23.238;2022-09-12T07:52:17;30.90;31.22
66752;SHT31;53663;42.676;23.238;2022-09-12T07:54:43;30.25;30.60
66752;SHT31;53663;42.676;23.238;2022-09-12T07:57:09;29.13;32.79
66752;SHT31;53663;42.676;23.238;2022-09-12T07:59:34;29.97;32.67
66752;SHT31;53663;42.676;23.238;2022-09-12T08:02:00;31.35;30.10
66752;SHT31;53663;42.676;23.238;2022-09-12T08:04:25;32.80;28.44
66752;SHT31;53663;42.676;23.238;2022-09-12T08:06:51;30.46;31.93
66752;SHT31;53663;42.676;23.238;2022-09-12T08:09:17;29.50;33.24
66752;SHT31;53663;42.676;23.238;2022-09-12T08:11:42;30.05;32.19
66752;SHT31;53663;42.676;23.238;2022-09-12T08:14:08;29.64;33.39
66752;SHT31;53663;42.676;23.238;2022-09-12T08:16:34;28.07;34.54
66752;SHT31;53663;42.676;23.238;2022-09-12T08:19:01;27.39;36.23
66752;SHT31;53663;42.676;23.238;2022-09-12T08:21:29;26.91;37.32
66752;SHT31;53663;42.676;23.238;2022-09-12T08:23:58;27.15;37.15
66752;SHT31;53663;42.676;23.238;2022-09-12T08:26:25;27.04;37.34
66752;SHT31;53663;42.676;23.238;2022-09-12T08:28:51;26.16;38.98
66752;SHT31;53663;42.676;23.238;2022-09-12T08:31:20;25.98;40.03
66752;SHT31;53663;42.676;23.238;2022-09-12T08:33:45;25.81;39.99
66752;SHT31;53663;42.676;23.238;2022-09-12T08:36:16;24.41;43.29
66752;SHT31;53663;42.676;23.238;2022-09-12T08:38:44;24.40;42.16
66752;SHT31;53663;42.676;23.238;2022-09-12T08:55:13;24.30;43.20
66752;SHT31;53663;42.676;23.238;2022-09-12T08:57:44;24.44;42.00
66752;SHT31;53663;42.676;23.238;2022-09-12T09:00:13;24.48;42.87
66752;SHT31;53663;42.676;23.238;2022-09-12T09:03:16;25.00;42.34
66752;SHT31;53663;42.676;23.238;2022-09-12T09:11:22;25.36;41.86
66752;SHT31;53663;42.676;23.238;2022-09-12T09:17:23;25.51;40.35
66752;SHT31;53663;42.676;23.238;2022-09-12T09:19:55;25.44;39.77
66752;SHT31;53663;42.676;23.238;2022-09-12T09:22:37;25.22;41.29
66752;SHT31;53663;42.676;23.238;2022-09-12T09:25:10;25.16;41.20
66752;SHT31;53663;42.676;23.238;2022-09-12T09:27:48;25.63;41.08
66752;SHT31;53663;42.676;23.238;2022-09-12T09:30:18;25.77;40.33
66752;SHT31;53663;42.676;23.238;2022-09-12T09:32:51;25.43;40.31
66752;SHT31;53663;42.676;23.238;2022-09-12T09:38:33;24.72;42.13
66752;SHT31;53663;42.676;23.238;2022-09-12T09:41:39;25.17;40.92
66752;SHT31;53663;42.676;23.238;2022-09-12T09:44:06;25.47;41.15
66752;SHT31;53663;42.676;23.238;2022-09-12T09:46:32;25.81;40.99
66752;SHT31;53663;42.676;23.238;2022-09-12T09:48:59;25.61;40.24
66752;SHT31;53663;42.676;23.238;2022-09-12T09:51:35;25.71;40.57
66752;SHT31;53663;42.676;23.238;2022-09-12T09:54:42;25.81;38.99
66752;SHT31;53663;42.676;23.238;2022-09-12T10:05:53;25.19;40.22
66752;SHT31;53663;42.676;23.238;2022-09-12T10:08:27;25.44;41.35
66752;SHT31;53663;42.676;23.238;2022-09-12T10:10:55;25.57;40.12
66752;SHT31;53663;42.676;23.238;2022-09-12T10:13:29;25.60;40.69
66752;SHT31;53663;42.676;23.238;2022-09-12T10:15:59;25.19;41.45
66752;SHT31;53663;42.676;23.238;2022-09-12T10:18:38;25.53;40.54
66752;SHT31;53663;42.676;23.238;2022-09-12T10:21:27;25.60;40.77
66752;SHT31;53663;42.676;23.238;2022-09-12T10:24:02;25.16;41.52
66752;SHT31;53663;42.676;23.238;2022-09-12T10:26:37;24.72;41.53
66752;SHT31;53663;42.676;23.238;2022-09-12T10:29:31;24.85;42.34
66752;SHT31;53663;42.676;23.238;2022-09-12T10:32:03;25.15;42.46
66752;SHT31;53663;42.676;23.238;2022-09-12T10:34:35;25.07;42.80
66752;SHT31;53663;42.676;23.238;2022-09-12T10:37:05;24.78;41.49
66752;SHT31;53663;42.676;23.238;2022-09-12T10:39:32;25.20;40.22
66752;SHT31;53663;42.676;23.238;2022-09-12T10:41:59;25.61;39.57
66752;SHT31;53663;42.676;23.238;2022-09-12T10:44:27;25.67;39.97
66752;SHT31;53663;42.676;23.238;2022-09-12T10:46:54;25.44;40.35
66752;SHT31;53663;42.676;23.238;2022-09-12T10:51:52;25.58;40.47
66752;SHT31;53663;42.676;23.238;2022-09-12T10:54:21;25.47;40.47
66752;SHT31;53663;42.676;23.238;2022-09-12T11:02:50;25.41;39.69
66752;SHT31;53663;42.676;23.238;2022-09-12T11:11:15;25.46;41.31
66752;SHT31;53663;42.676;23.238;2022-09-12T11:14:05;25.44;40.17
66752;SHT31;53663;42.676;23.238;2022-09-12T11:22:46;24.69;41.45
66752;SHT31;53663;42.676;23.238;2022-09-12T11:25:55;24.80;42.30
66752;SHT31;53663;42.676;23.238;2022-09-12T11:28:42;25.15;42.54
66752;SHT31;53663;42.676;23.238;2022-09-12T11:34:21;24.82;42.34
66752;SHT31;53663;42.676;23.238;2022-09-12T11:39:44;24.25;43.63
66752;SHT31;53663;42.676;23.238;2022-09-12T11:42:20;24.61;43.80
66752;SHT31;53663;42.676;23.238;2022-09-12T11:45:03;24.71;43.64
66752;SHT31;53663;42.676;23.238;2022-09-12T11:47:33;24.38;42.68
66752;SHT31;53663;42.676;23.238;2022-09-12T11:50:05;24.27;44.46
66752;SHT31;53663;42.676;23.238;2022-09-12T11:52:39;24.27;44.49
66752;SHT31;53663;42.676;23.238;2022-09-12T11:55:15;23.82;44.84
66752;SHT31;53663;42.676;23.238;2022-09-12T11:57:44;23.48;45.40
66752;SHT31;53663;42.676;23.238;2022-09-12T12:00:18;23.38;44.62
66752;SHT31;53663;42.676;23.238;2022-09-12T12:05:51;22.87;45.05
66752;SHT31;53663;42.676;23.238;2022-09-12T12:08:21;22.80;45.13
66752;SHT31;53663;42.676;23.238;2022-09-12T12:10:53;22.86;44.65
66752;SHT31;53663;42.676;23.238;2022-09-12T12:13:39;22.87;44.41
66752;SHT31;53663;42.676;23.238;2022-09-12T12:18:39;22.77;44.39
66752;SHT31;53663;42.676;23.238;2022-09-12T12:36:52;22.43;46.35
66752;SHT31;53663;42.676;23.238;2022-09-12T12:41:56;22.39;46.00
66752;SHT31;53663;42.676;23.238;2022-09-12T12:44:47;22.23;45.72
66752;SHT31;53663;42.676;23.238;2022-09-12T12:47:25;21.88;47.25
66752;SHT31;53663;42.676;23.238;2022-09-12T12:49:54;21.82;47.82
66752;SHT31;53663;42.676;23.238;2022-09-12T12:52:21;21.75;46.95
66752;SHT31;53663;42.676;23.238;2022-09-12T12:54:52;21.49;48.78
66752;SHT31;53663;42.676;23.238;2022-09-12T12:57:44;21.27;49.37
66752;SHT31;53663;42.676;23.238;2022-09-12T13:05:25;21.49;49.28
66752;SHT31;53663;42.676;23.238;2022-09-12T13:08:05;21.68;48.33
66752;SHT31;53663;42.676;23.238;2022-09-12T13:10:32;21.81;49.25
66752;SHT31;53663;42.676;23.238;2022-09-12T13:13:03;21.73;47.66
66752;SHT31;53663;42.676;23.238;2022-09-12T13:18:23;21.49;48.72
66752;SHT31;53663;42.676;23.238;2022-09-12T13:23:33;21.37;49.34
66752;SHT31;53663;42.676;23.238;2022-09-12T13:26:00;21.39;50.18
66752;SHT31;53663;42.676;23.238;2022-09-12T13:28:30;21.30;49.51
66752;SHT31;53663;42.676;23.238;2022-09-12T13:33:34;21.12;49.19
66752;SHT31;53663;42.676;23.238;2022-09-12T13:39:30;21.18;49.57
66752;SHT31;53663;42.676;23.238;2022-09-12T13:42:37;21.18;49.86
66752;SHT31;53663;42.676;23.238;2022-09-12T13:45:24;21.10;49.90
66752;SHT31;53663;42.676;23.238;2022-09-12T13:47:55;21.22;50.42
66752;SHT31;53663;42.676;23.238;2022-09-12T13:50:23;21.37;48.04
66752;SHT31;53663;42.676;23.238;2022-09-12T13:53:02;21.57;48.34
66752;SHT31;53663;42.676;23.238;2022-09-12T13:55:52;21.84;46.39
66752;SHT31;53663;42.676;23.238;2022-09-12T13:58:23;21.95;47.19
66752;SHT31;53663;42.676;23.238;2022-09-12T14:01:13;21.74;47.17
66752;SHT31;53663;42.676;23.238;2022-09-12T14:06:35;21.54;47.49
66752;SHT31;53663;42.676;23.238;2022-09-12T14:09:14;21.40;47.47
66752;SHT31;53663;42.676;23.238;2022-09-12T14:11:40;21.39;47.19
66752;SHT31;53663;42.676;23.238;2022-09-12T14:14:18;21.27;47.16
66752;SHT31;53663;42.676;23.238;2022-09-12T14:16:44;21.31;47.08
66752;SHT31;53663;42.676;23.238;2022-09-12T14:19:10;21.29;46.84
66752;SHT31;53663;42.676;23.238;2022-09-12T14:21:36;21.10;47.72
66752;SHT31;53663;42.676;23.238;2022-09-12T14:24:04;21.16;48.33
66752;SHT31;53663;42.676;23.238;2022-09-12T14:26:37;21.19;48.10
66752;SHT31;53663;42.676;23.238;2022-09-12T14:29:05;21.14;48.26
66752;SHT31;53663;42.676;23.238;2022-09-12T14:31:35;21.06;48.66
66752;SHT31;53663;42.676;23.238;2022-09-12T14:36:50;20.89;49.10
66752;SHT31;53663;42.676;23.238;2022-09-12T14:39:32;20.76;50.18
66752;SHT31;53663;42.676;23.238;2022-09-12T14:42:14;20.76;49.92
66752;SHT31;53663;42.676;23.238;2022-09-12T14:44:48;20.89;49.47
66752;SHT31;53663;42.676;23.238;2022-09-12T14:47:23;20.78;49.35
66752;SHT31;53663;42.676;23.238;2022-09-12T14:49:50;20.51;50.79
66752;SHT31;53663;42.676;23.238;2022-09-12T14:52:24;20.44;50.97
66752;SHT31;53663;42.676;23.238;2022-09-12T14:54:59;20.43;51.34
66752;SHT31;53663;42.676;23.238;2022-09-12T14:57:36;20.35;52.27
66752;SHT31;53663;42.676;23.238;2022-09-12T15:02:38;20.10;51.40
66752;SHT31;53663;42.676;23.238;2022-09-12T15:07:42;19.72;53.07
66752;SHT31;53663;42.676;23.238;2022-09-12T15:10:36;19.65;53.51
66752;SHT31;53663;42.676;23.238;2022-09-12T15:15:35;19.72;53.57
66752;SHT31;53663;42.676;23.238;2022-09-12T15:18:02;19.38;54.01
66752;SHT31;53663;42.676;23.238;2022-09-12T15:20:30;19.42;53.66
66752;SHT31;53663;42.676;23.238;2022-09-12T15:22:56;19.47;53.67
66752;SHT31;53663;42.676;23.238;2022-09-12T15:25:21;19.29;54.43
66752;SHT31;53663;42.676;23.238;2022-09-12T15:27:49;19.19;54.69
66752;SHT31;53663;42.676;23.238;2022-09-12T15:30:16;19.21;54.93
66752;SHT31;53663;42.676;23.238;2022-09-12T15:32:42;19.15;54.79
66752;SHT31;53663;42.676;23.238;2022-09-12T15:35:18;19.12;54.89
66752;SHT31;53663;42.676;23.238;2022-09-12T15:37:46;19.12;55.48
66752;SHT31;53663;42.676;23.238;2022-09-12T15:40:12;19.18;54.87
66752;SHT31;53663;42.676;23.238;2022-09-12T15:42:38;19.14;54.95
66752;SHT31;53663;42.676;23.238;2022-09-12T15:45:30;19.00;54.81
66752;SHT31;53663;42.676;23.238;2022-09-12T15:47:58;19.06;55.53
66752;SHT31;53663;42.676;23.238;2022-09-12T15:50:24;19.08;54.77
66752;SHT31;53663;42.676;23.238;2022-09-12T15:52:49;19.11;55.27
66752;SHT31;53663;42.676;23.238;2022-09-12T15:55:24;19.11;54.92
66752;SHT31;53663;42.676;23.238;2022-09-12T15:57:50;19.01;54.99
66752;SHT31;53663;42.676;23.238;2022-09-12T16:00:16;18.97;54.54
66752;SHT31;53663;42.676;23.238;2022-09-12T16:02:46;18.91;55.07
66752;SHT31;53663;42.676;23.238;2022-09-12T16:05:16;18.69;55.52
66752;SHT31;53663;42.676;23.238;2022-09-12T16:07:42;18.64;55.69
66752;SHT31;53663;42.676;23.238;2022-09-12T16:10:13;18.71;55.51
66752;SHT31;53663;42.676;23.238;2022-09-12T16:12:39;18.70;55.22
66752;SHT31;53663;42.676;23.238;2022-09-12T16:15:05;18.67;55.63
66752;SHT31;53663;42.676;23.238;2022-09-12T16:17:31;18.67;55.46
66752;SHT31;53663;42.676;23.238;2022-09-12T16:19:56;18.67;56.46
66752;SHT31;53663;42.676;23.238;2022-09-12T16:22:22;18.64;56.04
66752;SHT31;53663;42.676;23.238;2022-09-12T16:24:47;18.55;56.58
66752;SHT31;53663;42.676;23.238;2022-09-12T16:27:13;18.48;56.36
66752;SHT31;53663;42.676;23.238;2022-09-12T16:29:38;18.39;56.59
66752;SHT31;53663;42.676;23.238;2022-09-12T16:32:04;18.39;56.83
66752;SHT31;53663;42.676;23.238;2022-09-12T16:34:29;18.32;56.64
66752;SHT31;53663;42.676;23.238;2022-09-12T16:36:55;18.29;56.79
66752;SHT31;53663;42.676;23.238;2022-09-12T16:39:20;18.22;57.05
66752;SHT31;53663;42.676;23.238;2022-09-12T16:41:46;18.09;56.99
66752;SHT31;53663;42.676;23.238;2022-09-12T16:44:11;17.92;57.53
66752;SHT31;53663;42.676;23.238;2022-09-12T16:46:37;17.81;57.91
66752;SHT31;53663;42.676;23.238;2022-09-12T16:49:03;17.85;57.78
66752;SHT31;53663;42.676;23.238;2022-09-12T16:51:32;17.71;57.76
66752;SHT31;53663;42.676;23.238;2022-09-12T16:53:59;17.63;58.09
66752;SHT31;53663;42.676;23.238;2022-09-12T16:56:25;17.60;58.48
66752;SHT31;53663;42.676;23.238;2022-09-12T16:58:50;17.64;57.91
66752;SHT31;53663;42.676;23.238;2022-09-12T17:01:21;17.60;57.77
66752;SHT31;53663;42.676;23.238;2022-09-12T17:03:51;17.56;58.13
66752;SHT31;53663;42.676;23.238;2022-09-12T17:06:17;17.49;57.97
66752;SHT31;53663;42.676;23.238;2022-09-12T17:08:48;17.40;58.15
66752;SHT31;53663;42.676;23.238;2022-09-12T17:11:24;17.40;57.73
66752;SHT31;53663;42.676;23.238;2022-09-12T17:13:53;17.43;58.87
66752;SHT31;53663;42.676;23.238;2022-09-12T17:16:20;17.43;58.13
66752;SHT31;53663;42.676;23.238;2022-09-12T17:18:45;17.50;57.31
66752;SHT31;53663;42.676;23.238;2022-09-12T17:21:12;17.37;58.02
66752;SHT31;53663;42.676;23.238;2022-09-12T17:23:38;17.43;57.42
66752;SHT31;53663;42.676;23.238;2022-09-12T17:26:04;17.35;57.34
66752;SHT31;53663;42.676;23.238;2022-09-12T17:28:30;17.26;57.85
66752;SHT31;53663;42.676;23.238;2022-09-12T17:30:57;17.27;57.80
66752;SHT31;53663;42.676;23.238;2022-09-12T17:33:24;17.23;58.14
66752;SHT31;53663;42.676;23.238;2022-09-12T17:35:49;17.19;57.92
66752;SHT31;53663;42.676;23.238;2022-09-12T17:38:15;17.18;57.99
66752;SHT31;53663;42.676;23.238;2022-09-12T17:40:41;17.12;58.22
66752;SHT31;53663;42.676;23.238;2022-09-12T17:43:10;17.16;58.72
66752;SHT31;53663;42.676;23.238;2022-09-12T17:45:36;17.19;58.35
66752;SHT31;53663;42.676;23.238;2022-09-12T17:48:03;17.11;58.94
66752;SHT31;53663;42.676;23.238;2022-09-12T17:50:34;17.11;58.25
66752;SHT31;53663;42.676;23.238;2022-09-12T17:52:59;17.05;58.43
66752;SHT31;53663;42.676;23.238;2022-09-12T17:55:25;16.94;58.70
66752;SHT31;53663;42.676;23.238;2022-09-12T17:57:51;16.82;58.84
66752;SHT31;53663;42.676;23.238;2022-09-12T18:00:17;16.72;59.25
66752;SHT31;53663;42.676;23.238;2022-09-12T18:03:02;16.64;60.02
66752;SHT31;53663;42.676;23.238;2022-09-12T18:05:28;16.57;60.16
66752;SHT31;53663;42.676;23.238;2022-09-12T18:07:53;16.50;60.17
66752;SHT31;53663;42.676;23.238;2022-09-12T18:10:19;16.41;60.14
66752;SHT31;53663;42.676;23.238;2022-09-12T18:12:44;16.30;60.77
66752;SHT31;53663;42.676;23.238;2022-09-12T18:15:11;16.29;60.71